Time;durP1;ratioP1;P1;durP2;ratioP2;P2;SDS_P1;SDS_P2;PMS_P1;PMS_P2;Temp;Humidity;BMP_temperature;BMP_pressure;BME280_temperature;BME280_humidity;BME280_pressure;Samples;Min_cycle;Max_cycle;Signal;HPM_P1;HPM_P2
2023/09/21 00:01:23;;;;;;;13.50;13.07;;;20.20;99.90;;;;;;4861167;29;20533;-82
2023/09/21 00:03:53;;;;;;;12.90;12.50;;;20.20;99.90;;;;;;4859074;29;24113;-82
2023/09/21 00:06:22;;;;;;;13.47;13.07;;;20.10;99.90;;;;;;4860763;29;20457;-83
2023/09/21 00:08:50;;;;;;;13.10;12.63;;;20.10;99.90;;;;;;4858860;29;20521;-84
2023/09/21 00:11:19;;;;;;;13.50;13.10;;;20.10;99.90;;;;;;4859327;29;21076;-84
2023/09/21 00:13:47;;;;;;;13.53;13.13;;;20.00;99.90;;;;;;4860190;29;20448;-80
2023/09/21 00:16:18;;;;;;;13.50;13.00;;;20.00;99.90;;;;;;4861674;29;20461;-80
2023/09/21 00:18:48;;;;;;;13.30;13.00;;;19.90;99.90;;;;;;4861606;29;20486;-81
2023/09/21 00:21:20;;;;;;;13.10;12.70;;;20.00;99.90;;;;;;4860612;29;20483;-82
2023/09/21 00:23:48;;;;;;;14.20;13.70;;;20.00;99.90;;;;;;4862328;29;20555;-82
2023/09/21 00:26:18;;;;;;;13.90;13.60;;;20.00;99.90;;;;;;4861840;29;20834;-84
2023/09/21 00:28:51;;;;;;;13.53;13.13;;;19.90;99.90;;;;;;4862511;29;20453;-83
2023/09/21 00:31:19;;;;;;;13.63;13.33;;;20.00;99.90;;;;;;4862209;29;20477;-83
2023/09/21 00:33:49;;;;;;;13.23;12.83;;;20.00;99.90;;;;;;4862211;29;20457;-83
2023/09/21 00:36:18;;;;;;;13.10;12.63;;;20.00;99.90;;;;;;4861222;29;20473;-84
2023/09/21 00:38:48;;;;;;;13.20;12.80;;;20.00;99.90;;;;;;4860349;29;20452;-83
2023/09/21 00:41:17;;;;;;;13.27;12.80;;;20.10;99.90;;;;;;4863012;29;20504;-85
2023/09/21 00:43:46;;;;;;;13.27;12.87;;;20.00;99.90;;;;;;4868595;29;20844;-86
2023/09/21 00:46:15;;;;;;;12.87;12.53;;;20.00;99.90;;;;;;4863437;29;20462;-83
2023/09/21 00:48:43;;;;;;;13.67;13.17;;;20.00;99.90;;;;;;4862369;29;20469;-83
2023/09/21 00:51:16;;;;;;;13.37;12.87;;;19.90;99.90;;;;;;4859586;29;20562;-82
2023/09/21 00:53:47;;;;;;;13.40;12.80;;;20.00;99.90;;;;;;4864363;29;20464;-82
2023/09/21 00:56:22;;;;;;;13.43;12.93;;;19.90;99.90;;;;;;4870516;29;20453;-84
2023/09/21 00:58:53;;;;;;;12.93;12.53;;;19.90;99.90;;;;;;4862652;29;20469;-82
2023/09/21 01:01:28;;;;;;;14.00;13.40;;;19.80;99.90;;;;;;4859551;29;20537;-85
2023/09/21 01:04:06;;;;;;;12.90;12.40;;;19.80;99.90;;;;;;4859126;29;20476;-84
2023/09/21 01:06:36;;;;;;;12.03;11.73;;;19.80;99.90;;;;;;4861883;29;20473;-85
2023/09/21 01:09:13;;;;;;;12.87;12.13;;;19.80;99.90;;;;;;4862718;29;21112;-85
2023/09/21 01:11:42;;;;;;;12.13;11.70;;;19.80;99.90;;;;;;4857939;29;20499;-84
2023/09/21 01:14:10;;;;;;;12.67;12.27;;;19.70;99.90;;;;;;4862451;29;20468;-84
2023/09/21 01:16:43;;;;;;;12.80;12.50;;;19.60;99.90;;;;;;4862477;29;20480;-84
2023/09/21 01:19:14;;;;;;;13.30;12.80;;;19.50;99.90;;;;;;4859542;29;20979;-85
2023/09/21 01:21:51;;;;;;;12.47;12.00;;;19.50;99.90;;;;;;4860617;29;20481;-85
2023/09/21 01:24:23;;;;;;;12.27;11.97;;;19.50;99.90;;;;;;4858623;29;20456;-82
2023/09/21 01:27:02;;;;;;;12.80;12.40;;;19.40;99.90;;;;;;4863418;29;20843;-85
2023/09/21 01:29:34;;;;;;;13.00;12.60;;;19.50;99.90;;;;;;4859164;29;20479;-83
2023/09/21 01:32:05;;;;;;;12.70;12.30;;;19.50;99.90;;;;;;4863155;29;20485;-81
2023/09/21 01:34:35;;;;;;;12.60;12.20;;;19.40;99.90;;;;;;4863844;29;20462;-79
2023/09/21 01:37:05;;;;;;;12.50;12.10;;;19.40;99.90;;;;;;4861867;29;20541;-80
2023/09/21 01:39:35;;;;;;;12.50;12.10;;;19.40;99.90;;;;;;4862856;29;20504;-83
2023/09/21 01:42:03;;;;;;;12.67;12.27;;;19.30;99.90;;;;;;4865204;29;20484;-83
2023/09/21 01:44:31;;;;;;;12.93;12.53;;;19.30;99.90;;;;;;4861562;29;20461;-83
2023/09/21 01:47:00;;;;;;;13.27;12.70;;;19.30;99.90;;;;;;4856163;29;20472;-81
2023/09/21 01:49:34;;;;;;;13.47;12.97;;;19.30;99.90;;;;;;4862694;29;20457;-84
2023/09/21 01:52:03;;;;;;;12.17;11.77;;;19.30;99.90;;;;;;4862806;29;20545;-85
2023/09/21 01:54:55;;;;;;;12.23;11.93;;;19.30;99.90;;;;;;4859500;29;20473;-83
2023/09/21 01:57:23;;;;;;;12.90;12.50;;;19.30;99.90;;;;;;4854068;29;20560;-86
2023/09/21 01:59:52;;;;;;;12.60;12.20;;;19.20;99.90;;;;;;4860433;29;20557;-84
2023/09/21 02:02:20;;;;;;;14.37;13.87;;;19.30;99.90;;;;;;4855428;29;20830;-81
2023/09/21 02:04:49;;;;;;;13.80;13.40;;;19.30;99.90;;;;;;4863095;29;20465;-84
2023/09/21 02:07:18;;;;;;;14.10;13.63;;;19.40;99.90;;;;;;4864634;29;20883;-84
2023/09/21 02:09:46;;;;;;;13.57;13.17;;;19.50;99.90;;;;;;4858722;29;20464;-82
2023/09/21 02:12:16;;;;;;;13.73;13.33;;;19.40;99.90;;;;;;4858872;29;20477;-84
2023/09/21 02:14:47;;;;;;;14.07;13.67;;;19.40;99.90;;;;;;4861981;29;20452;-82
2023/09/21 02:17:16;;;;;;;14.40;13.90;;;19.30;99.90;;;;;;4859068;29;20815;-83
2023/09/21 02:19:45;;;;;;;14.33;13.93;;;19.30;99.90;;;;;;4861709;29;20463;-84
2023/09/21 02:22:13;;;;;;;14.10;13.70;;;19.30;99.90;;;;;;4861331;29;20460;-81
2023/09/21 02:24:41;;;;;;;14.20;13.70;;;19.30;99.90;;;;;;4863418;29;20460;-84
2023/09/21 02:27:09;;;;;;;14.53;13.93;;;19.30;99.90;;;;;;4863607;29;20544;-85
2023/09/21 02:29:40;;;;;;;13.70;13.20;;;19.20;99.90;;;;;;4860380;29;20557;-87
2023/09/21 02:32:11;;;;;;;13.70;13.30;;;19.20;99.90;;;;;;4857816;29;20476;-85
2023/09/21 02:34:40;;;;;;;13.70;13.30;;;19.20;99.90;;;;;;4858981;29;20457;-85
2023/09/21 02:37:09;;;;;;;14.73;14.17;;;19.30;99.90;;;;;;4861085;29;20514;-87
2023/09/21 02:39:38;;;;;;;14.00;13.60;;;19.30;99.90;;;;;;4857003;29;21043;-86
2023/09/21 02:42:08;;;;;;;14.40;14.00;;;19.30;99.90;;;;;;4861352;29;20512;-83
2023/09/21 02:44:37;;;;;;;14.10;13.70;;;19.30;99.90;;;;;;4860535;29;20457;-85
2023/09/21 02:47:07;;;;;;;14.10;13.67;;;19.30;99.90;;;;;;4858419;29;20453;-82
2023/09/21 02:49:35;;;;;;;13.80;13.30;;;19.20;99.90;;;;;;4859709;29;20469;-84
2023/09/21 02:52:04;;;;;;;14.53;14.13;;;19.20;99.90;;;;;;4857029;29;20501;-84
2023/09/21 02:54:35;;;;;;;14.30;13.80;;;19.20;99.90;;;;;;4857520;29;20496;-82
2023/09/21 02:57:05;;;;;;;14.57;13.83;;;19.20;99.90;;;;;;4858038;29;20569;-84
2023/09/21 02:59:35;;;;;;;13.77;13.33;;;19.20;99.90;;;;;;4862181;29;20553;-80
2023/09/21 03:02:04;;;;;;;14.00;13.60;;;19.20;99.90;;;;;;4857056;29;20477;-83
2023/09/21 03:04:36;;;;;;;14.23;13.83;;;19.20;99.90;;;;;;4864132;29;20525;-81
2023/09/21 03:07:04;;;;;;;14.10;13.60;;;19.20;99.90;;;;;;4875160;29;20556;-84
2023/09/21 03:09:32;;;;;;;14.47;13.97;;;19.20;99.90;;;;;;4858528;29;20469;-80
2023/09/21 03:12:01;;;;;;;15.53;14.83;;;19.20;99.90;;;;;;4859514;29;20500;-86
2023/09/21 03:14:29;;;;;;;14.47;13.97;;;19.20;99.90;;;;;;4863120;29;20453;-85
2023/09/21 03:16:57;;;;;;;14.50;14.00;;;19.30;99.90;;;;;;4862206;29;20449;-85
2023/09/21 03:19:26;;;;;;;14.67;13.97;;;19.30;99.90;;;;;;4862173;29;20532;-83
2023/09/21 03:21:56;;;;;;;13.80;13.40;;;19.20;99.90;;;;;;4859765;29;20485;-84
2023/09/21 03:24:24;;;;;;;14.40;13.90;;;19.20;99.90;;;;;;4859776;29;20469;-84
2023/09/21 03:26:52;;;;;;;14.03;13.53;;;19.30;99.90;;;;;;4862886;29;20527;-84
2023/09/21 03:29:21;;;;;;;14.10;13.43;;;19.40;99.90;;;;;;4856012;29;20472;-84
2023/09/21 03:31:49;;;;;;;14.10;13.60;;;19.40;99.90;;;;;;4858293;29;20548;-81
2023/09/21 03:34:17;;;;;;;13.80;13.40;;;19.40;99.90;;;;;;4862150;29;20446;-83
2023/09/21 03:36:46;;;;;;;14.00;13.47;;;19.40;99.90;;;;;;4860310;29;20467;-83
2023/09/21 03:39:17;;;;;;;13.87;13.37;;;19.40;99.90;;;;;;4867708;29;20468;-84
2023/09/21 03:41:46;;;;;;;13.70;13.30;;;19.50;99.90;;;;;;4859172;29;20512;-83
2023/09/21 03:44:15;;;;;;;14.30;13.80;;;19.50;99.90;;;;;;4856886;29;20582;-84
2023/09/21 03:46:43;;;;;;;13.77;13.37;;;19.40;99.90;;;;;;4860237;29;20465;-84
2023/09/21 03:49:11;;;;;;;14.23;13.83;;;19.50;99.90;;;;;;4860919;29;20467;-84
2023/09/21 03:51:41;;;;;;;14.57;13.97;;;19.50;99.90;;;;;;4863269;29;20524;-85
2023/09/21 03:54:09;;;;;;;14.03;13.53;;;19.50;99.90;;;;;;4861157;29;20470;-82
2023/09/21 03:56:44;;;;;;;14.10;13.50;;;19.50;99.90;;;;;;4863960;29;20457;-85
2023/09/21 03:59:12;;;;;;;13.70;13.27;;;19.40;99.90;;;;;;4859158;29;20464;-85
2023/09/21 04:01:41;;;;;;;13.80;13.40;;;19.50;99.90;;;;;;4865951;29;20484;-86
2023/09/21 04:04:17;;;;;;;14.43;13.93;;;19.50;99.90;;;;;;4863483;29;20468;-81
2023/09/21 04:06:50;;;;;;;14.67;14.20;;;19.50;99.90;;;;;;4864012;29;20459;-85
2023/09/21 04:09:18;;;;;;;13.47;13.17;;;19.60;99.90;;;;;;4861676;29;20453;-83
2023/09/21 04:11:48;;;;;;;14.50;13.90;;;19.60;99.90;;;;;;4862369;29;20541;-84
2023/09/21 04:14:18;;;;;;;14.70;14.07;;;19.60;99.90;;;;;;4877197;29;20467;-84
2023/09/21 04:16:46;;;;;;;14.90;14.40;;;19.50;99.90;;;;;;4865127;29;20467;-84
2023/09/21 04:19:15;;;;;;;14.57;14.17;;;19.40;99.90;;;;;;4861512;29;20471;-84
2023/09/21 04:21:44;;;;;;;14.27;13.70;;;19.50;99.90;;;;;;4866494;29;20472;-84
2023/09/21 04:24:14;;;;;;;14.63;14.17;;;19.50;99.90;;;;;;4860948;29;20488;-83
2023/09/21 04:26:42;;;;;;;15.30;14.80;;;19.40;99.90;;;;;;4862840;29;20536;-85
2023/09/21 04:29:15;;;;;;;15.10;14.60;;;19.30;99.90;;;;;;4860105;29;20462;-81
2023/09/21 04:31:44;;;;;;;14.87;14.27;;;19.30;99.90;;;;;;4861662;29;20231;-84
2023/09/21 04:34:12;;;;;;;14.87;14.40;;;19.30;99.90;;;;;;4853187;29;20528;-78
2023/09/21 04:36:40;;;;;;;15.00;14.60;;;19.30;99.90;;;;;;4854960;29;20480;-80
2023/09/21 04:39:11;;;;;;;15.07;14.57;;;19.20;99.90;;;;;;4858891;29;20460;-78
2023/09/21 04:41:39;;;;;;;14.43;13.93;;;19.20;1.00;;;;;;4848472;29;20477;-79
2023/09/21 04:44:08;;;;;;;15.37;14.73;;;19.20;1.00;;;;;;4855849;29;20926;-78
2023/09/21 04:46:38;;;;;;;14.73;14.20;;;19.20;1.00;;;;;;4857780;29;20467;-77
2023/09/21 04:49:06;;;;;;;15.60;15.00;;;19.10;1.00;;;;;;4859316;29;20461;-75
2023/09/21 04:51:34;;;;;;;16.27;15.70;;;19.20;1.00;;;;;;4858660;29;20485;-75
2023/09/21 04:54:03;;;;;;;15.50;15.00;;;19.40;1.00;;;;;;4858733;29;20924;-77
2023/09/21 04:56:31;;;;;;;15.97;15.23;;;19.50;1.00;;;;;;4856320;29;20847;-76
2023/09/21 04:58:59;;;;;;;15.97;15.47;;;19.60;1.00;;;;;;4854902;29;20473;-77
2023/09/21 05:01:27;;;;;;;15.93;15.43;;;19.60;1.00;;;;;;4856943;29;20495;-77
2023/09/21 05:03:57;;;;;;;15.83;15.30;;;19.40;1.00;;;;;;4855707;29;20468;-79
2023/09/21 05:06:25;;;;;;;15.90;15.30;;;19.30;1.00;;;;;;4853998;29;20462;-81
2023/09/21 05:08:53;;;;;;;16.30;15.70;;;19.30;1.00;;;;;;4860178;29;20461;-83
2023/09/21 05:11:21;;;;;;;16.63;15.97;;;19.30;1.00;;;;;;4855560;29;20496;-81
2023/09/21 05:13:52;;;;;;;16.00;15.50;;;19.30;1.00;;;;;;4859650;29;20488;-82
2023/09/21 05:16:43;;;;;;;16.23;15.63;;;19.30;1.00;;;;;;4861622;29;20453;-82
2023/09/21 05:19:13;;;;;;;15.87;15.37;;;19.40;1.00;;;;;;4861232;29;20468;-82
2023/09/21 05:21:41;;;;;;;15.50;15.00;;;19.30;1.00;;;;;;4859768;29;21057;-83
2023/09/21 05:24:27;;;;;;;16.13;15.53;;;19.30;1.00;;;;;;4861260;29;20544;-82
2023/09/21 05:26:58;;;;;;;15.80;15.30;;;19.30;1.00;;;;;;4859918;29;20473;-85
2023/09/21 05:29:51;;;;;;;14.97;14.53;;;19.40;1.00;;;;;;4874091;29;20461;-83
2023/09/21 05:32:19;;;;;;;15.83;15.20;;;19.50;99.90;;;;;;4860291;29;20871;-81
2023/09/21 05:35:06;;;;;;;15.80;15.20;;;19.50;1.00;;;;;;4865419;29;20495;-82
2023/09/21 05:37:35;;;;;;;16.17;15.60;;;19.40;1.00;;;;;;4866216;29;20463;-83
2023/09/21 05:40:06;;;;;;;16.27;15.67;;;19.50;99.90;;;;;;4861940;29;21239;-81
2023/09/21 05:42:36;;;;;;;15.30;14.80;;;19.60;99.90;;;;;;4862285;29;20464;-83
2023/09/21 05:45:33;;;;;;;15.70;15.27;;;19.60;99.90;;;;;;4864284;29;20551;-81
2023/09/21 05:48:01;;;;;;;15.63;15.13;;;19.50;99.90;;;;;;4866752;29;20465;-80
2023/09/21 05:50:31;;;;;;;16.40;15.90;;;19.60;1.00;;;;;;4865744;29;20513;-82
2023/09/21 05:52:59;;;;;;;16.40;15.80;;;19.50;1.00;;;;;;4863931;29;20517;-83
2023/09/21 05:55:28;;;;;;;16.67;16.10;;;19.50;1.00;;;;;;4861304;29;20565;-82
2023/09/21 05:57:56;;;;;;;16.27;15.67;;;19.50;1.00;;;;;;4865826;29;20497;-84
2023/09/21 06:00:28;;;;;;;17.07;16.27;;;19.60;1.00;;;;;;4864925;29;20537;-84
2023/09/21 06:03:00;;;;;;;19.13;16.90;;;19.60;1.00;;;;;;4865169;29;20461;-83
2023/09/21 06:05:30;;;;;;;16.57;16.00;;;19.50;1.00;;;;;;4865864;29;20470;-82
2023/09/21 06:08:00;;;;;;;16.97;16.17;;;19.60;1.00;;;;;;4856122;29;20496;-81
2023/09/21 06:10:30;;;;;;;17.03;16.20;;;19.50;1.00;;;;;;4865266;29;21030;-81
2023/09/21 06:12:58;;;;;;;16.50;16.00;;;19.50;1.00;;;;;;4863547;29;20540;-82
2023/09/21 06:15:30;;;;;;;16.90;16.20;;;19.60;1.00;;;;;;4859355;29;20557;-82
2023/09/21 06:17:58;;;;;;;16.33;15.83;;;19.60;1.00;;;;;;4861701;29;20879;-82
2023/09/21 06:20:36;;;;;;;16.43;15.90;;;19.60;1.00;;;;;;4863731;29;20491;-82
2023/09/21 06:23:07;;;;;;;16.20;15.70;;;19.70;1.00;;;;;;4863014;29;20453;-82
2023/09/21 06:25:36;;;;;;;15.93;15.43;;;19.80;1.00;;;;;;4855973;29;20473;-81
2023/09/21 06:28:05;;;;;;;16.23;15.63;;;19.90;1.00;;;;;;4861708;29;20457;-81
2023/09/21 06:30:33;;;;;;;16.23;15.70;;;19.90;1.00;;;;;;4861232;29;20489;-84
2023/09/21 06:33:03;;;;;;;16.03;15.43;;;19.90;1.00;;;;;;4860248;29;20552;-81
2023/09/21 06:35:35;;;;;;;16.30;15.80;;;19.90;1.00;;;;;;4861512;29;20889;-80
2023/09/21 06:38:09;;;;;;;16.50;15.90;;;19.90;1.00;;;;;;4863352;29;20467;-81
2023/09/21 06:40:44;;;;;;;16.60;16.00;;;20.00;99.90;;;;;;4859979;29;20482;-83
2023/09/21 06:43:13;;;;;;;16.17;15.67;;;20.00;1.00;;;;;;4859476;29;20453;-82
2023/09/21 06:45:42;;;;;;;15.53;15.03;;;20.10;99.90;;;;;;4857837;29;20470;-84
2023/09/21 06:52:21;;;;;;;16.40;15.67;;;20.10;1.00;;;;;;4858666;29;20488;-83
2023/09/21 06:55:10;;;;;;;16.53;15.93;;;20.20;99.90;;;;;;4863745;29;20482;-84
2023/09/21 06:57:38;;;;;;;16.60;16.00;;;20.20;99.90;;;;;;4859839;29;21699;-84
2023/09/21 07:00:10;;;;;;;16.03;15.43;;;20.20;99.90;;;;;;4854516;29;20487;-84
2023/09/21 07:02:49;;;;;;;16.10;15.50;;;20.30;99.90;;;;;;4861999;29;20449;-84
2023/09/21 07:05:18;;;;;;;16.00;15.40;;;20.30;99.90;;;;;;4858702;29;20991;-84
2023/09/21 07:07:46;;;;;;;16.10;15.50;;;20.40;99.90;;;;;;4861478;29;20461;-83
2023/09/21 07:10:16;;;;;;;15.87;15.23;;;20.40;99.90;;;;;;4860509;29;20503;-82
2023/09/21 07:12:48;;;;;;;15.87;15.37;;;20.50;99.90;;;;;;4861214;29;20461;-83
2023/09/21 07:15:17;;;;;;;16.20;15.70;;;20.50;99.90;;;;;;4865259;29;20620;-83
2023/09/21 07:17:46;;;;;;;16.20;15.30;;;20.60;99.90;;;;;;4862487;29;20476;-82
2023/09/21 07:20:16;;;;;;;16.03;15.53;;;20.60;99.90;;;;;;4863511;29;20571;-84
2023/09/21 07:22:44;;;;;;;15.80;15.30;;;20.60;99.90;;;;;;4861711;29;20525;-83
2023/09/21 07:25:12;;;;;;;15.77;15.27;;;20.60;99.90;;;;;;4863220;29;20496;-84
2023/09/21 07:27:43;;;;;;;16.27;15.70;;;20.60;99.90;;;;;;4877320;29;20460;-84
2023/09/21 07:30:13;;;;;;;15.90;15.40;;;20.60;99.90;;;;;;4862012;29;20461;-83
2023/09/21 07:32:41;;;;;;;15.63;15.13;;;20.60;99.90;;;;;;4858814;29;20529;-83
2023/09/21 07:35:10;;;;;;;16.03;15.50;;;20.60;99.90;;;;;;4862232;29;20573;-84
2023/09/21 07:37:38;;;;;;;16.63;16.00;;;20.50;99.90;;;;;;4863070;29;20461;-85
2023/09/21 07:40:08;;;;;;;16.40;15.90;;;20.60;99.90;;;;;;4859421;29;20975;-84
2023/09/21 07:42:36;;;;;;;16.47;15.87;;;20.70;99.90;;;;;;4858053;29;20511;-83
2023/09/21 07:45:07;;;;;;;16.47;15.97;;;20.80;99.90;;;;;;4861396;29;21049;-84
2023/09/21 07:47:35;;;;;;;16.20;15.70;;;21.00;99.90;;;;;;4860749;29;20508;-82
2023/09/21 07:50:03;;;;;;;16.17;15.60;;;21.10;99.90;;;;;;4862954;29;20473;-81
2023/09/21 07:52:33;;;;;;;16.90;16.30;;;21.20;99.90;;;;;;4863263;29;21017;-84
2023/09/21 07:55:02;;;;;;;16.40;15.90;;;21.20;99.90;;;;;;4862853;29;20481;-84
2023/09/21 07:57:47;;;;;;;16.40;15.90;;;21.20;99.90;;;;;;4854718;29;20472;-83
2023/09/21 08:00:51;;;;;;;17.03;16.13;;;21.20;99.90;;;;;;4859850;29;20503;-84
2023/09/21 08:07:27;;;;;;;16.70;16.10;;;21.20;99.90;;;;;;4864004;29;20442;-83
2023/09/21 08:12:54;;;;;;;17.40;16.70;;;21.20;99.90;;;;;;4833846;29;20561;-83
2023/09/21 08:25:42;;;;;;;16.80;16.30;;;21.30;99.90;;;;;;4857157;29;20473;-82
2023/09/21 08:29:02;;;;;;;17.13;16.53;;;21.30;99.90;;;;;;4861162;29;20462;-84
2023/09/21 08:32:23;;;;;;;16.57;16.07;;;21.40;99.90;;;;;;4856181;29;20481;-86
2023/09/21 08:35:15;;;;;;;17.37;16.67;;;21.50;99.90;;;;;;4856164;29;20485;-84
2023/09/21 08:37:59;;;;;;;16.70;16.20;;;21.50;99.90;;;;;;4860968;29;20468;-83
2023/09/21 08:40:47;;;;;;;16.67;16.17;;;21.50;99.90;;;;;;4860035;29;20991;-81
2023/09/21 08:46:49;;;;;;;17.50;16.80;;;21.60;99.90;;;;;;4862618;29;20472;-85
2023/09/21 08:49:30;;;;;;;16.93;16.33;;;21.70;99.90;;;;;;4862584;29;20549;-83
2023/09/21 08:56:43;;;;;;;17.40;16.80;;;21.90;99.90;;;;;;4865027;29;20525;-83
2023/09/21 08:59:48;;;;;;;17.70;16.70;;;22.10;99.90;;;;;;4833129;29;20528;-84
2023/09/21 09:09:15;;;;;;;17.83;17.13;;;23.00;99.90;;;;;;4860010;29;20477;-84
2023/09/21 09:12:30;;;;;;;17.13;16.53;;;23.10;99.90;;;;;;4867202;29;20509;-83
2023/09/21 09:15:28;;;;;;;18.10;17.50;;;23.10;99.90;;;;;;4865862;29;20527;-83
2023/09/21 09:18:42;;;;;;;17.90;17.30;;;23.10;99.90;;;;;;4856884;29;20480;-85
2023/09/21 09:21:34;;;;;;;17.50;16.80;;;23.30;99.90;;;;;;4863514;29;20503;-86
2023/09/21 09:24:22;;;;;;;17.50;16.90;;;23.30;99.90;;;;;;4857709;29;20473;-84
2023/09/21 09:30:45;;;;;;;17.23;16.73;;;23.20;99.90;;;;;;4861451;29;20944;-83
2023/09/21 09:34:16;;;;;;;17.37;16.87;;;23.50;99.90;;;;;;4863638;29;20467;-82
2023/09/21 09:40:42;;;;;;;17.23;16.63;;;23.60;99.90;;;;;;4859452;29;20467;-86
2023/09/21 09:47:18;;;;;;;17.23;16.60;;;23.60;99.90;;;;;;4854133;29;20457;-82
2023/09/21 09:50:33;;;;;;;17.37;16.87;;;23.70;99.90;;;;;;4862846;29;20548;-83
2023/09/21 09:53:35;;;;;;;17.70;17.00;;;23.60;99.90;;;;;;4858604;29;20464;-85
2023/09/21 10:07:04;;;;;;;16.70;16.07;;;23.20;99.90;;;;;;4859578;29;20975;-84
2023/09/21 10:10:20;;;;;;;17.47;16.97;;;23.20;99.90;;;;;;4858192;29;21001;-83
2023/09/21 10:13:27;;;;;;;17.10;16.60;;;23.20;99.90;;;;;;4849476;29;20542;-84
2023/09/21 10:17:27;;;;;;;17.30;16.60;;;23.10;99.90;;;;;;4858766;29;20587;-83
2023/09/21 10:20:55;;;;;;;17.50;16.90;;;23.10;99.90;;;;;;4867582;23;20535;-82
2023/09/21 10:24:04;;;;;;;16.83;16.33;;;23.20;99.90;;;;;;4864805;29;20571;-80
2023/09/21 10:26:45;;;;;;;17.30;16.77;;;23.30;99.90;;;;;;4874181;29;20542;-80
2023/09/21 10:29:45;;;;;;;16.47;15.97;;;23.40;99.90;;;;;;4872100;29;20467;-80
2023/09/21 10:32:47;;;;;;;16.60;16.10;;;23.50;99.90;;;;;;4853344;29;20453;-80
2023/09/21 10:36:03;;;;;;;16.50;16.00;;;23.50;99.90;;;;;;4852291;29;21323;-79
2023/09/21 10:38:36;;;;;;;16.60;16.00;;;23.50;99.90;;;;;;4851751;29;20489;-82
2023/09/21 10:41:42;;;;;;;;;;;;;;;;;;;;;
2023/09/21 10:45:10;;;;;;;17.43;16.53;;;23.60;99.90;;;;;;4846759;29;20940;-81
2023/09/21 10:48:04;;;;;;;16.10;15.60;;;23.70;99.90;;;;;;4850489;29;22195;-79
2023/09/21 10:50:45;;;;;;;16.50;16.00;;;23.70;99.90;;;;;;4850338;29;20524;-80
2023/09/21 11:03:30;;;;;;;16.67;16.07;;;23.70;99.90;;;;;;4855540;29;20464;-80
2023/09/21 11:06:40;;;;;;;16.57;16.07;;;23.70;99.90;;;;;;4852478;29;20449;-80
2023/09/21 11:15:39;;;;;;;16.57;16.07;;;23.70;99.90;;;;;;4852169;29;20464;-80
2023/09/21 11:18:55;;;;;;;16.10;15.70;;;23.80;99.90;;;;;;4868166;29;20468;-80
2023/09/21 11:25:22;;;;;;;16.27;15.80;;;23.70;99.90;;;;;;4843993;29;20469;-81
2023/09/21 11:28:32;;;;;;;16.80;16.20;;;23.70;99.90;;;;;;4850774;29;20472;-81
2023/09/21 11:31:31;;;;;;;15.90;15.50;;;23.70;99.90;;;;;;4850380;29;21027;-80
2023/09/21 11:34:51;;;;;;;16.23;15.63;;;23.70;99.90;;;;;;4853278;29;20454;-80
2023/09/21 11:38:04;;;;;;;16.80;16.07;;;23.80;99.90;;;;;;4849792;29;20580;-79
2023/09/21 11:41:37;;;;;;;15.77;15.33;;;23.80;99.90;;;;;;4827567;29;21046;-80
2023/09/21 11:44:29;;;;;;;16.03;15.57;;;23.80;99.90;;;;;;4866403;29;20492;-80
2023/09/21 11:47:41;;;;;;;16.23;15.70;;;24.00;99.90;;;;;;4853490;29;20489;-80
2023/09/21 11:50:50;;;;;;;15.70;15.00;;;24.20;99.90;;;;;;4856849;29;20495;-80
2023/09/21 11:59:41;;;;;;;15.77;15.30;;;24.30;99.90;;;;;;4854398;29;20470;-80
2023/09/21 12:02:16;;;;;;;16.47;15.87;;;24.30;99.90;;;;;;4852227;29;20577;-81
2023/09/21 12:04:45;;;;;;;16.43;15.70;;;24.40;99.90;;;;;;4851453;29;20463;-80
2023/09/21 12:07:15;;;;;;;16.17;15.67;;;24.50;99.90;;;;;;4850613;29;20487;-81
2023/09/21 12:09:44;;;;;;;16.17;15.67;;;24.50;99.90;;;;;;4856384;29;20814;-80
2023/09/21 12:12:15;;;;;;;15.83;15.23;;;24.50;99.90;;;;;;4850848;29;20488;-81
2023/09/21 12:14:45;;;;;;;16.10;15.60;;;24.50;99.90;;;;;;4851744;29;20460;-82
2023/09/21 12:17:19;;;;;;;15.90;15.50;;;24.50;99.90;;;;;;4848011;29;20484;-81
2023/09/21 12:19:49;;;;;;;15.80;15.40;;;24.50;99.90;;;;;;4856365;29;20464;-82
2023/09/21 12:22:19;;;;;;;16.40;15.90;;;24.60;99.90;;;;;;4852007;29;20484;-81
2023/09/21 12:24:48;;;;;;;16.10;15.60;;;24.70;99.90;;;;;;4858311;29;21107;-81
2023/09/21 12:27:20;;;;;;;15.80;15.37;;;24.60;99.90;;;;;;4851681;29;20460;-81
2023/09/21 12:30:23;;;;;;;15.80;15.37;;;24.60;99.90;;;;;;4825560;29;20494;-81
2023/09/21 12:33:50;;;;;;;15.53;15.13;;;24.70;99.90;;;;;;4832619;29;20988;-79
2023/09/21 12:36:48;;;;;;;16.30;15.80;;;24.70;99.90;;;;;;4831266;29;20637;-81
2023/09/21 12:40:01;;;;;;;16.00;15.50;;;24.70;99.90;;;;;;4837006;29;21246;-80
2023/09/21 12:43:13;;;;;;;15.13;14.60;;;24.70;99.90;;;;;;4837558;29;20472;-81
2023/09/21 12:48:56;;;;;;;15.10;14.60;;;24.70;99.90;;;;;;4836451;29;20955;-82
2023/09/21 12:51:57;;;;;;;15.77;15.20;;;24.80;99.90;;;;;;4836737;29;21008;-80
2023/09/21 12:54:39;;;;;;;15.00;14.57;;;24.70;99.90;;;;;;4834914;29;20537;-80
2023/09/21 12:57:27;;;;;;;15.13;14.73;;;24.70;99.90;;;;;;4833163;29;20488;-80
2023/09/21 13:01:03;;;;;;;;;;;;;;;;;;;;;
2023/09/21 13:03:47;;;;;;;15.73;15.23;;;24.70;99.90;;;;;;4839455;29;20465;-81
2023/09/21 13:06:37;;;;;;;15.93;15.33;;;24.70;99.90;;;;;;4842902;29;20484;-80
2023/09/21 13:09:26;;;;;;;15.20;14.60;;;24.80;99.90;;;;;;4839478;29;20462;-80
2023/09/21 13:15:52;;;;;;;15.17;14.67;;;24.80;99.90;;;;;;4835356;29;20461;-81
2023/09/21 13:19:04;;;;;;;14.70;14.30;;;24.90;99.90;;;;;;4840799;29;20492;-82
2023/09/21 13:21:51;;;;;;;14.83;14.23;;;24.80;99.90;;;;;;4837819;29;20489;-81
2023/09/21 13:24:40;;;;;;;14.60;14.20;;;24.80;99.90;;;;;;4841288;29;20519;-83
2023/09/21 13:27:36;;;;;;;14.73;14.23;;;24.80;99.90;;;;;;4854480;29;20473;-81
2023/09/21 13:30:34;;;;;;;15.10;14.60;;;24.90;99.90;;;;;;4853137;29;20476;-81
2023/09/21 13:34:12;;;;;;;;;;;;;;;;;;;;;
2023/09/21 13:36:58;;;;;;;14.40;14.00;;;24.90;99.90;;;;;;4855430;29;20481;-81
2023/09/21 13:40:06;;;;;;;14.67;14.17;;;24.80;99.90;;;;;;4859487;29;20471;-81
2023/09/21 13:43:09;;;;;;;14.60;14.10;;;24.80;99.90;;;;;;4850683;29;20477;-82
2023/09/21 13:46:10;;;;;;;14.23;13.70;;;24.80;99.90;;;;;;4857001;29;20461;-81
2023/09/21 13:49:01;;;;;;;15.07;14.57;;;24.90;99.90;;;;;;4870498;29;20501;-81
2023/09/21 13:51:58;;;;;;;14.50;14.10;;;24.80;99.90;;;;;;4855654;29;21009;-83
2023/09/21 13:57:53;;;;;;;14.57;14.17;;;24.80;99.90;;;;;;4855508;29;20504;-81
2023/09/21 14:00:24;;;;;;;14.77;14.37;;;24.80;99.90;;;;;;4858890;29;20488;-80
2023/09/21 14:03:11;;;;;;;14.33;13.93;;;24.80;99.90;;;;;;4870828;29;20470;-81
2023/09/21 14:06:34;;;;;;;14.50;14.00;;;24.80;99.90;;;;;;4867968;29;21007;-83
2023/09/21 14:09:08;;;;;;;14.00;13.57;;;24.80;99.90;;;;;;4857969;29;20469;-81
2023/09/21 14:11:37;;;;;;;14.20;13.63;;;24.80;99.90;;;;;;4861990;29;20485;-80
2023/09/21 14:14:11;;;;;;;13.63;13.23;;;24.80;99.90;;;;;;4858101;29;20461;-80
2023/09/21 14:16:52;;;;;;;13.10;12.80;;;24.80;99.90;;;;;;4859214;29;20939;-81
2023/09/21 14:19:23;;;;;;;13.63;13.23;;;24.80;99.90;;;;;;4858432;29;20465;-82
2023/09/21 14:22:11;;;;;;;13.60;13.23;;;24.80;99.90;;;;;;4858558;29;20552;-79
2023/09/21 14:24:59;;;;;;;13.80;13.40;;;24.80;99.90;;;;;;4857893;29;20473;-80
2023/09/21 14:27:47;;;;;;;14.20;13.40;;;24.80;99.90;;;;;;4856612;29;20580;-82
2023/09/21 14:30:32;;;;;;;14.17;13.67;;;24.80;99.90;;;;;;4856008;29;20849;-82
2023/09/21 14:33:25;;;;;;;13.80;13.40;;;24.80;99.90;;;;;;4849573;29;20475;-80
2023/09/21 14:36:21;;;;;;;13.63;13.33;;;24.80;99.90;;;;;;4853214;29;20997;-80
2023/09/21 14:39:22;;;;;;;14.10;13.80;;;24.90;99.90;;;;;;4864615;29;20490;-79
2023/09/21 14:42:29;;;;;;;14.50;14.10;;;24.80;99.90;;;;;;4852081;29;20497;-80
2023/09/21 14:45:09;;;;;;;14.97;14.57;;;24.80;99.90;;;;;;4854643;29;20465;-79
2023/09/21 14:47:53;;;;;;;14.50;14.10;;;24.80;99.90;;;;;;4859149;29;20472;-79
2023/09/21 14:50:34;;;;;;;14.60;14.10;;;24.80;99.90;;;;;;4854783;29;20496;-82
2023/09/21 14:53:12;;;;;;;14.43;14.03;;;24.80;99.90;;;;;;4854469;29;21033;-82
2023/09/21 14:55:44;;;;;;;14.30;13.90;;;24.80;99.90;;;;;;4854484;29;21026;-81
2023/09/21 14:58:16;;;;;;;14.33;13.93;;;24.80;99.90;;;;;;4865029;29;20491;-83
2023/09/21 15:00:50;;;;;;;13.90;13.40;;;24.80;99.90;;;;;;4854682;29;20506;-82
2023/09/21 15:03:23;;;;;;;14.20;13.70;;;24.80;99.90;;;;;;4851149;29;20980;-81
2023/09/21 15:05:55;;;;;;;14.33;13.93;;;24.80;99.90;;;;;;4850772;29;21185;-80